createdAt,value
2018-12-24T00:00:37.499Z,9.00
2018-12-24T00:03:08.515Z,8.43
2018-12-24T00:05:37.070Z,7.03
2018-12-24T00:08:05.733Z,8.07
2018-12-24T00:10:34.274Z,8.80
2018-12-24T00:13:02.909Z,8.63
2018-12-24T00:15:31.461Z,8.97
2018-12-24T00:18:00.027Z,9.27
2018-12-24T00:20:28.566Z,9.60
2018-12-24T00:22:57.134Z,9.07
2018-12-24T00:25:25.676Z,10.77
2018-12-24T00:27:54.240Z,10.43
2018-12-24T00:30:22.902Z,10.50
2018-12-24T00:32:51.537Z,10.07
2018-12-24T00:35:20.073Z,9.53
2018-12-24T00:37:48.950Z,10.10
2018-12-24T00:40:17.520Z,10.43
2018-12-24T00:42:46.422Z,10.13
2018-12-24T00:45:14.960Z,8.60
2018-12-24T00:47:43.594Z,8.23
2018-12-24T00:50:12.208Z,7.07
2018-12-24T00:52:40.787Z,7.40
2018-12-24T00:55:09.660Z,6.80
2018-12-24T00:57:38.208Z,6.27
2018-12-24T01:00:06.905Z,7.23
2018-12-24T01:02:35.795Z,7.57
2018-12-24T01:05:04.520Z,8.90
2018-12-24T01:07:33.073Z,7.83
2018-12-24T01:10:01.650Z,8.10
2018-12-24T01:12:30.191Z,7.63
2018-12-24T01:14:58.861Z,7.10
2018-12-24T01:17:27.406Z,7.33
2018-12-24T01:19:55.963Z,7.13
2018-12-24T01:22:24.514Z,7.53
2018-12-24T01:24:53.085Z,7.83
2018-12-24T01:27:21.679Z,7.83
2018-12-24T01:29:50.266Z,9.37
2018-12-24T01:32:18.800Z,8.70
2018-12-24T01:34:47.366Z,9.30
2018-12-24T01:37:15.914Z,9.83
2018-12-24T01:39:44.495Z,8.30
2018-12-24T01:42:13.092Z,8.67
2018-12-24T01:44:41.648Z,8.50
2018-12-24T01:47:10.190Z,9.20
2018-12-24T01:49:38.817Z,9.40
2018-12-24T01:52:07.346Z,8.67
2018-12-24T01:54:35.912Z,8.23
2018-12-24T01:57:04.536Z,9.07
2018-12-24T01:59:33.096Z,7.97
2018-12-24T02:02:01.729Z,8.20
2018-12-24T02:04:30.305Z,8.00
2018-12-24T02:06:58.855Z,8.30
2018-12-24T02:09:27.425Z,9.37
2018-12-24T02:11:55.979Z,8.77
2018-12-24T02:14:24.635Z,8.13
2018-12-24T02:16:53.179Z,8.37
2018-12-24T02:19:21.821Z,8.20
2018-12-24T02:21:53.138Z,7.60
2018-12-24T02:24:21.708Z,8.47
2018-12-24T02:26:50.255Z,7.90
2018-12-24T02:29:18.815Z,7.87
2018-12-24T02:31:47.437Z,8.07
2018-12-24T02:34:16.077Z,7.17
2018-12-24T02:36:44.652Z,7.33
2018-12-24T02:39:13.371Z,7.83
2018-12-24T02:41:41.930Z,6.90
2018-12-24T02:44:10.477Z,7.60
2018-12-24T02:46:39.046Z,6.37
2018-12-24T02:49:07.589Z,7.80
2018-12-24T02:51:36.225Z,6.80
2018-12-24T02:54:04.785Z,6.93
2018-12-24T02:56:33.407Z,6.50
2018-12-24T02:59:02.189Z,6.77
2018-12-24T03:01:31.670Z,7.47
2018-12-24T03:04:00.291Z,7.60
2018-12-24T03:06:28.853Z,7.07
2018-12-24T03:08:57.400Z,7.70
2018-12-24T03:11:26.044Z,8.00
2018-12-24T03:13:54.597Z,7.90
2018-12-24T03:16:23.146Z,7.97
2018-12-24T03:18:51.716Z,8.80
2018-12-24T03:21:20.345Z,9.87
2018-12-24T03:23:48.986Z,10.77
2018-12-24T03:26:17.636Z,10.53
2018-12-24T03:28:46.193Z,10.93
2018-12-24T03:31:14.918Z,10.47
2018-12-24T03:33:43.543Z,9.97
2018-12-24T03:36:12.253Z,10.97
2018-12-24T03:38:40.914Z,10.50
2018-12-24T03:41:09.473Z,11.27
2018-12-24T03:43:38.033Z,11.60
2018-12-24T03:46:06.661Z,11.47
2018-12-24T03:48:35.225Z,10.93
2018-12-24T03:51:03.773Z,10.60
2018-12-24T03:53:32.346Z,11.13
2018-12-24T03:56:00.913Z,12.33
2018-12-24T03:58:29.553Z,12.67
2018-12-24T04:00:58.114Z,12.87
2018-12-24T04:03:26.675Z,11.77
2018-12-24T04:05:55.230Z,13.00
2018-12-24T04:08:23.803Z,15.33
2018-12-24T04:10:52.351Z,14.47
2018-12-24T04:13:22.635Z,15.43
2018-12-24T04:15:51.205Z,14.13
2018-12-24T04:18:19.839Z,14.23
2018-12-24T04:20:48.467Z,15.53
2018-12-24T04:23:17.120Z,16.70
2018-12-24T04:25:45.749Z,16.23
2018-12-24T04:28:14.305Z,16.07
2018-12-24T04:30:42.860Z,17.27
2018-12-24T04:33:11.420Z,16.97
2018-12-24T04:35:39.965Z,17.60
2018-12-24T04:38:08.528Z,16.57
2018-12-24T04:40:37.068Z,18.17
2018-12-24T04:43:05.622Z,18.23
2018-12-24T04:45:34.181Z,18.43
2018-12-24T04:48:02.725Z,19.27
2018-12-24T04:50:31.303Z,19.33
2018-12-24T04:52:59.850Z,18.07
2018-12-24T04:55:28.427Z,17.97
2018-12-24T04:57:56.987Z,18.10
2018-12-24T05:00:25.550Z,19.40
2018-12-24T05:02:54.110Z,17.00
2018-12-24T05:05:22.691Z,18.70
2018-12-24T05:07:51.243Z,17.47
2018-12-24T05:10:19.802Z,17.37
2018-12-24T05:12:48.358Z,18.23
2018-12-24T05:15:17.001Z,17.23
2018-12-24T05:17:45.544Z,17.43
2018-12-24T05:20:14.144Z,17.63
2018-12-24T05:22:42.757Z,17.37
2018-12-24T05:25:11.371Z,18.60
2018-12-24T05:27:39.964Z,18.10
2018-12-24T05:30:08.649Z,17.20
2018-12-24T05:32:37.236Z,15.70
2018-12-24T05:35:05.782Z,15.57
2018-12-24T05:37:34.352Z,15.33
2018-12-24T05:40:02.962Z,15.67
2018-12-24T05:42:31.554Z,15.37
2018-12-24T05:45:00.114Z,14.77
2018-12-24T05:47:28.686Z,15.73
2018-12-24T05:49:57.229Z,16.20
2018-12-24T05:52:25.805Z,15.43
2018-12-24T05:54:54.364Z,16.63
2018-12-24T05:57:22.960Z,15.93
2018-12-24T05:59:51.579Z,15.57
2018-12-24T06:02:20.231Z,15.70
2018-12-24T06:04:48.789Z,15.63
2018-12-24T06:07:17.350Z,14.03
2018-12-24T06:09:45.903Z,16.10
2018-12-24T06:12:14.553Z,14.90
2018-12-24T06:14:43.105Z,14.63
2018-12-24T06:17:11.656Z,15.30
2018-12-24T06:19:40.243Z,14.50
2018-12-24T06:22:08.790Z,13.70
2018-12-24T06:24:37.365Z,12.97
2018-12-24T06:27:05.909Z,11.93
2018-12-24T06:29:34.476Z,12.73
2018-12-24T06:32:03.027Z,13.10
2018-12-24T06:34:31.598Z,12.20
2018-12-24T06:37:00.142Z,12.10
2018-12-24T06:39:30.618Z,11.70
2018-12-24T06:41:59.165Z,11.17
2018-12-24T06:44:27.744Z,11.03
2018-12-24T06:46:56.315Z,11.23
2018-12-24T06:49:24.886Z,11.20
2018-12-24T06:51:53.446Z,11.10
2018-12-24T06:54:22.047Z,11.13
2018-12-24T06:56:50.592Z,10.07
2018-12-24T06:59:19.146Z,9.87
2018-12-24T07:01:47.723Z,9.33
2018-12-24T07:04:16.310Z,9.27
2018-12-24T07:06:44.888Z,9.37
2018-12-24T07:09:13.433Z,9.13
2018-12-24T07:11:42.004Z,8.53
2018-12-24T07:14:15.374Z,8.33
2018-12-24T07:16:40.836Z,8.33
2018-12-24T07:19:09.411Z,7.57
2018-12-24T07:21:37.992Z,7.97
2018-12-24T07:24:06.533Z,7.90
2018-12-24T07:26:35.094Z,7.47
2018-12-24T07:29:03.637Z,8.33
2018-12-24T07:31:32.297Z,7.53
2018-12-24T07:34:00.845Z,8.57
2018-12-24T07:36:29.425Z,7.43
2018-12-24T07:38:57.962Z,7.47
2018-12-24T07:41:26.524Z,7.27
2018-12-24T07:43:55.061Z,7.23
2018-12-24T07:46:23.641Z,6.87
2018-12-24T07:48:52.187Z,6.90
2018-12-24T07:51:20.821Z,6.60
2018-12-24T07:53:49.370Z,6.80
2018-12-24T07:56:17.899Z,5.90
2018-12-24T07:58:46.778Z,5.87
2018-12-24T08:01:15.393Z,6.13
2018-12-24T08:03:43.961Z,5.80
2018-12-24T08:06:12.498Z,5.73
2018-12-24T08:08:41.082Z,5.23
2018-12-24T08:11:09.634Z,5.20
2018-12-24T08:13:38.218Z,5.17
2018-12-24T08:16:06.842Z,5.20
2018-12-24T08:18:35.473Z,5.53
2018-12-24T08:21:04.111Z,5.67
2018-12-24T08:23:32.834Z,5.40
2018-12-24T08:26:01.374Z,5.33
2018-12-24T08:28:30.061Z,5.63
2018-12-24T08:30:58.627Z,7.20
2018-12-24T08:33:27.184Z,8.57
2018-12-24T08:35:55.758Z,6.77
2018-12-24T08:38:24.387Z,8.57
2018-12-24T08:40:52.945Z,5.23
2018-12-24T08:43:21.568Z,6.57
2018-12-24T08:45:50.112Z,14.30
2018-12-24T08:48:18.685Z,12.87
2018-12-24T08:50:47.239Z,16.40
2018-12-24T08:53:15.780Z,8.00
2018-12-24T08:55:44.422Z,5.37
2018-12-24T08:58:12.971Z,5.53
2018-12-24T09:00:41.550Z,5.17
2018-12-24T09:03:10.092Z,4.87
2018-12-24T09:05:38.652Z,5.50
2018-12-24T09:08:07.262Z,5.37
2018-12-24T09:10:35.884Z,6.20
2018-12-24T09:13:07.087Z,4.97
2018-12-24T09:15:35.654Z,4.63
2018-12-24T09:18:04.192Z,4.80
2018-12-24T09:20:32.764Z,5.37
2018-12-24T09:23:01.339Z,4.83
2018-12-24T09:25:30.052Z,5.53
2018-12-24T09:27:58.921Z,5.33
2018-12-24T09:30:27.485Z,5.13
2018-12-24T09:32:56.100Z,4.97
2018-12-24T09:35:24.673Z,5.67
2018-12-24T09:37:53.268Z,4.97
2018-12-24T09:40:21.829Z,4.83
2018-12-24T09:42:51.706Z,5.60
2018-12-24T09:45:20.534Z,5.63
2018-12-24T09:47:49.092Z,5.43
2018-12-24T09:50:18.517Z,4.67
2018-12-24T09:52:47.145Z,5.00
2018-12-24T09:55:15.697Z,4.53
2018-12-24T09:57:44.267Z,4.60
2018-12-24T10:00:15.146Z,4.30
2018-12-24T10:02:44.161Z,4.97
2018-12-24T10:05:12.778Z,5.03
2018-12-24T10:07:41.762Z,5.00
2018-12-24T10:10:10.765Z,4.50
2018-12-24T10:12:39.339Z,4.67
2018-12-24T10:15:08.120Z,4.30
2018-12-24T10:17:36.921Z,4.70
2018-12-24T10:20:06.103Z,3.50
2018-12-24T10:22:34.652Z,3.77
2018-12-24T10:25:03.208Z,4.40
2018-12-24T10:27:31.836Z,6.60
2018-12-24T10:30:00.373Z,3.97
2018-12-24T10:32:28.928Z,3.90
2018-12-24T10:34:57.474Z,3.67
2018-12-24T10:37:26.033Z,3.70
2018-12-24T10:39:54.650Z,3.67
2018-12-24T10:42:23.208Z,4.20
2018-12-24T10:44:51.818Z,5.07
2018-12-24T10:47:20.376Z,6.80
2018-12-24T10:49:49.710Z,4.10
2018-12-24T10:52:18.289Z,3.80
2018-12-24T10:54:46.811Z,4.53
2018-12-24T10:57:15.368Z,4.00
2018-12-24T10:59:43.904Z,4.90
2018-12-24T11:02:12.465Z,4.47
2018-12-24T11:04:41.488Z,5.00
2018-12-24T11:07:10.097Z,3.70
2018-12-24T11:09:38.723Z,4.50
2018-12-24T11:12:07.492Z,3.80
2018-12-24T11:14:36.076Z,3.37
2018-12-24T11:17:04.665Z,3.10
2018-12-24T11:19:33.317Z,3.20
2018-12-24T11:22:01.851Z,3.13
2018-12-24T11:24:33.386Z,2.87
2018-12-24T11:27:01.916Z,2.67
2018-12-24T11:29:30.469Z,2.90
2018-12-24T11:31:59.023Z,2.97
2018-12-24T11:34:27.704Z,2.77
2018-12-24T11:36:56.281Z,3.23
2018-12-24T11:39:24.842Z,2.10
2018-12-24T11:41:53.382Z,1.97
2018-12-24T11:44:21.943Z,2.03
2018-12-24T11:46:51.961Z,2.00
2018-12-24T11:49:20.536Z,2.30
2018-12-24T11:51:51.877Z,2.30
2018-12-24T11:54:20.437Z,1.87
2018-12-24T11:56:48.979Z,2.23
2018-12-24T11:59:17.592Z,2.50
2018-12-24T12:01:46.156Z,2.50
2018-12-24T12:04:14.690Z,2.53
2018-12-24T12:06:43.249Z,2.00
2018-12-24T12:09:11.861Z,2.10
2018-12-24T12:11:40.432Z,2.97
2018-12-24T12:14:08.993Z,2.63
2018-12-24T12:16:37.569Z,2.50
2018-12-24T12:19:06.105Z,2.33
2018-12-24T12:21:34.678Z,2.47
2018-12-24T12:24:03.239Z,2.97
2018-12-24T12:26:31.803Z,9.33
2018-12-24T12:29:00.333Z,6.57
2018-12-24T12:31:28.928Z,3.80
2018-12-24T12:33:57.470Z,3.93
2018-12-24T12:36:26.012Z,3.83
2018-12-24T12:38:54.601Z,4.13
2018-12-24T12:41:23.218Z,4.07
2018-12-24T12:43:51.777Z,3.60
2018-12-24T12:46:20.317Z,6.80
2018-12-24T12:48:48.885Z,7.00
2018-12-24T12:51:17.434Z,9.37
2018-12-24T12:53:46.073Z,5.53
2018-12-24T12:56:14.691Z,4.10
2018-12-24T12:58:43.241Z,3.67
2018-12-24T13:01:11.801Z,2.20
2018-12-24T13:03:40.363Z,1.93
2018-12-24T13:06:08.900Z,2.47
2018-12-24T13:08:37.458Z,2.67
2018-12-24T13:11:06.023Z,2.23
2018-12-24T13:13:36.904Z,3.10
2018-12-24T13:16:04.929Z,2.80
2018-12-24T13:18:33.489Z,3.53
2018-12-24T13:21:02.083Z,4.27
2018-12-24T13:23:30.706Z,4.73
2018-12-24T13:25:59.260Z,3.90
2018-12-24T13:28:27.838Z,3.83
2018-12-24T13:30:56.382Z,3.30
2018-12-24T13:33:28.030Z,4.27
2018-12-24T13:35:56.673Z,3.43
2018-12-24T13:38:25.222Z,3.17
2018-12-24T13:40:53.815Z,3.40
2018-12-24T13:43:24.316Z,3.50
2018-12-24T13:45:53.009Z,2.60
2018-12-24T13:48:21.624Z,2.40
2018-12-24T13:51:31.212Z,2.73
2018-12-24T13:53:59.652Z,2.13
2018-12-24T13:56:28.100Z,1.60
2018-12-24T13:58:56.544Z,2.07
2018-12-24T14:01:25.005Z,1.77
2018-12-24T14:03:53.439Z,1.50
2018-12-24T14:06:21.902Z,1.93
2018-12-24T14:08:50.344Z,2.03
2018-12-24T14:11:19.088Z,1.50
2018-12-24T14:13:47.681Z,1.60
2018-12-24T14:16:16.866Z,1.50
2018-12-24T14:18:45.769Z,1.30
2018-12-24T14:21:14.248Z,1.50
2018-12-24T14:23:42.697Z,1.53
2018-12-24T14:26:11.152Z,1.80
2018-12-24T14:28:39.592Z,1.83
2018-12-24T14:31:08.058Z,1.80
2018-12-24T14:33:36.500Z,1.80
2018-12-24T14:36:04.937Z,1.80
2018-12-24T14:38:33.394Z,1.67
2018-12-24T14:41:01.839Z,1.60
2018-12-24T14:43:30.303Z,1.60
2018-12-24T14:45:58.749Z,1.77
2018-12-24T14:48:27.214Z,2.37
2018-12-24T14:50:55.649Z,2.40
2018-12-24T14:53:24.128Z,2.10
2018-12-24T14:55:52.657Z,2.33
2018-12-24T14:58:21.103Z,2.40
2018-12-24T15:00:49.552Z,2.43
2018-12-24T15:03:17.999Z,2.80
2018-12-24T15:05:46.429Z,2.90
2018-12-24T15:08:14.883Z,3.20
2018-12-24T15:10:43.320Z,3.07
2018-12-24T15:13:11.854Z,3.03
2018-12-24T15:15:40.307Z,2.90
2018-12-24T15:18:08.771Z,2.40
2018-12-24T15:20:37.351Z,2.20
2018-12-24T15:23:05.814Z,2.40
2018-12-24T15:25:34.240Z,2.83
2018-12-24T15:28:02.667Z,4.23
2018-12-24T15:30:31.401Z,6.27
2018-12-24T15:32:59.845Z,6.87
2018-12-24T15:35:28.297Z,5.83
2018-12-24T15:37:56.739Z,5.47
2018-12-24T15:40:25.198Z,4.13
2018-12-24T15:42:53.628Z,3.63
2018-12-24T15:45:22.084Z,4.17
2018-12-24T15:47:50.520Z,3.80
2018-12-24T15:50:18.980Z,4.60
2018-12-24T15:52:47.422Z,3.90
2018-12-24T15:55:15.871Z,4.67
2018-12-24T15:57:44.315Z,3.93
2018-12-24T16:00:12.846Z,3.37
2018-12-24T16:02:41.284Z,3.63
2018-12-24T16:05:09.810Z,3.27
2018-12-24T16:07:38.247Z,3.93
2018-12-24T16:10:06.696Z,3.40
2018-12-24T16:12:35.133Z,3.50
2018-12-24T16:15:03.956Z,3.47
2018-12-24T16:17:32.384Z,3.90
2018-12-24T16:20:00.851Z,4.03
2018-12-24T16:22:29.294Z,3.90
2018-12-24T16:24:57.752Z,4.90
2018-12-24T16:27:26.188Z,5.23
2018-12-24T16:29:54.635Z,6.33
2018-12-24T16:32:23.092Z,5.87
2018-12-24T16:34:51.541Z,6.37
2018-12-24T16:37:19.988Z,6.10
2018-12-24T16:39:48.505Z,6.07
2018-12-24T16:42:17.029Z,4.87
2018-12-24T16:44:45.455Z,5.03
2018-12-24T16:47:14.026Z,4.90
2018-12-24T16:49:42.541Z,5.10
2018-12-24T16:52:11.104Z,5.10
2018-12-24T16:54:39.594Z,5.00
2018-12-24T16:57:08.035Z,5.33
2018-12-24T16:59:36.473Z,5.10
2018-12-24T17:02:04.936Z,6.60
2018-12-24T17:04:33.376Z,7.10
2018-12-24T17:07:01.932Z,11.93
2018-12-24T17:09:30.372Z,13.43
2018-12-24T17:11:58.832Z,11.97
2018-12-24T17:14:27.277Z,12.60
2018-12-24T17:16:55.744Z,12.17
2018-12-24T17:19:24.247Z,11.70
2018-12-24T17:21:52.714Z,11.07
2018-12-24T17:24:21.160Z,11.10
2018-12-24T17:26:49.612Z,11.43
2018-12-24T17:29:18.064Z,12.60
2018-12-24T17:31:46.521Z,13.40
2018-12-24T17:34:14.992Z,12.40
2018-12-24T17:36:43.427Z,11.83
2018-12-24T17:39:11.888Z,11.77
2018-12-24T17:41:40.324Z,11.87
2018-12-24T17:44:08.787Z,11.60
2018-12-24T17:46:37.228Z,11.00
2018-12-24T17:49:05.691Z,11.97
2018-12-24T17:51:34.133Z,12.40
2018-12-24T17:54:02.571Z,13.17
2018-12-24T17:56:31.043Z,13.23
2018-12-24T17:58:59.489Z,13.80
2018-12-24T18:01:28.301Z,12.57
2018-12-24T18:03:56.768Z,13.10
2018-12-24T18:06:25.228Z,13.47
2018-12-24T18:08:53.659Z,12.33
2018-12-24T18:11:22.129Z,11.50
2018-12-24T18:13:50.584Z,12.87
2018-12-24T18:16:19.057Z,11.13
2018-12-24T18:18:49.560Z,11.10
2018-12-24T18:21:17.692Z,10.80
2018-12-24T18:23:46.132Z,11.00
2018-12-24T18:26:14.698Z,11.90
2018-12-24T18:28:43.138Z,12.63
2018-12-24T18:31:19.758Z,13.00
2018-12-24T18:33:41.853Z,14.33
2018-12-24T18:36:10.323Z,14.33
2018-12-24T18:38:39.075Z,13.43
2018-12-24T18:41:07.525Z,13.67
2018-12-24T18:43:35.991Z,12.33
2018-12-24T18:46:04.509Z,12.70
2018-12-24T18:48:33.413Z,12.37
2018-12-24T18:51:01.857Z,10.63
2018-12-24T18:53:30.320Z,10.03
2018-12-24T18:56:00.405Z,10.20
2018-12-24T18:58:28.860Z,10.30
2018-12-24T19:00:57.477Z,10.20
2018-12-24T19:03:25.941Z,9.77
2018-12-24T19:05:54.718Z,8.77
2018-12-24T19:08:23.197Z,9.40
2018-12-24T19:10:51.653Z,9.33
2018-12-24T19:13:20.123Z,9.10
2018-12-24T19:15:48.555Z,9.10
2018-12-24T19:18:17.001Z,9.67
2018-12-24T19:20:45.471Z,9.33
2018-12-24T19:23:13.989Z,9.87
2018-12-24T19:25:42.448Z,8.93
2018-12-24T19:28:10.889Z,9.27
2018-12-24T19:30:39.452Z,9.30
2018-12-24T19:33:07.904Z,9.83
2018-12-24T19:35:36.378Z,10.00
2018-12-24T19:38:04.822Z,9.47
2018-12-24T19:40:33.372Z,9.13
2018-12-24T19:43:01.809Z,9.17
2018-12-24T19:45:30.279Z,9.13
2018-12-24T19:47:58.720Z,10.30
2018-12-24T19:50:27.190Z,9.67
2018-12-24T19:52:55.625Z,9.57
2018-12-24T19:55:24.096Z,9.83
2018-12-24T19:57:52.543Z,9.50
2018-12-24T20:00:23.672Z,9.83
2018-12-24T20:02:52.157Z,9.70
2018-12-24T20:05:20.678Z,9.97
2018-12-24T20:07:49.329Z,9.10
2018-12-24T20:10:17.843Z,9.77
2018-12-24T20:12:46.305Z,10.03
2018-12-24T20:15:14.857Z,9.30
2018-12-24T20:17:43.314Z,9.57
2018-12-24T20:20:11.770Z,9.10
2018-12-24T20:22:40.311Z,9.80
2018-12-24T20:25:08.821Z,10.07
2018-12-24T20:27:37.285Z,10.17
2018-12-24T20:30:06.438Z,10.07
2018-12-24T20:32:34.909Z,9.53
2018-12-24T20:35:03.344Z,10.50
2018-12-24T20:37:31.781Z,8.73
2018-12-24T20:40:00.267Z,10.27
2018-12-24T20:42:28.729Z,10.67
2018-12-24T20:44:57.194Z,10.07
2018-12-24T20:47:25.653Z,10.30
2018-12-24T20:49:54.207Z,10.50
2018-12-24T20:52:22.832Z,9.33
2018-12-24T20:54:51.356Z,9.87
2018-12-24T20:57:19.812Z,9.63
2018-12-24T20:59:48.285Z,9.90
2018-12-24T21:02:16.721Z,11.00
2018-12-24T21:04:45.273Z,10.93
2018-12-24T21:07:13.709Z,11.27
2018-12-24T21:09:42.153Z,11.57
2018-12-24T21:12:10.617Z,12.73
2018-12-24T21:14:39.060Z,13.23
2018-12-24T21:17:07.555Z,13.43
2018-12-24T21:19:36.031Z,13.17
2018-12-24T21:22:04.502Z,11.93
2018-12-24T21:24:32.971Z,11.93
2018-12-24T21:27:01.424Z,11.10
2018-12-24T21:29:30.231Z,11.57
2018-12-24T21:31:58.696Z,10.77
2018-12-24T21:34:27.213Z,11.47
2018-12-24T21:36:55.689Z,10.67
2018-12-24T21:39:27.223Z,10.33
2018-12-24T21:41:55.707Z,11.40
2018-12-24T21:44:24.148Z,10.80
2018-12-24T21:46:52.616Z,11.13
2018-12-24T21:49:21.052Z,10.10
2018-12-24T21:51:49.500Z,11.10
2018-12-24T21:54:17.972Z,10.30
2018-12-24T21:56:46.771Z,10.80
2018-12-24T21:59:15.240Z,10.80
2018-12-24T22:01:43.698Z,10.28
2018-12-24T22:04:12.157Z,11.10
2018-12-24T22:06:40.621Z,10.57
2018-12-24T22:09:09.104Z,11.08
2018-12-24T22:11:37.573Z,10.47
2018-12-24T22:14:06.049Z,11.53
2018-12-24T22:16:34.503Z,10.63
2018-12-24T22:19:02.946Z,12.27
2018-12-24T22:21:31.403Z,13.80
2018-12-24T22:23:59.847Z,17.90
2018-12-24T22:26:28.319Z,22.83
2018-12-24T22:28:56.938Z,26.23
2018-12-24T22:31:25.444Z,32.93
2018-12-24T22:33:53.889Z,38.30
2018-12-24T22:36:22.365Z,37.20
2018-12-24T22:38:50.825Z,36.63
2018-12-24T22:41:19.469Z,37.83
2018-12-24T22:43:47.915Z,38.17
2018-12-24T22:46:16.384Z,43.27
2018-12-24T22:48:44.926Z,47.93
2018-12-24T22:51:13.408Z,48.90
2018-12-24T22:53:41.879Z,50.30
2018-12-24T22:56:10.348Z,49.93
2018-12-24T22:58:38.796Z,49.43
2018-12-24T23:01:07.517Z,49.73
2018-12-24T23:03:35.980Z,47.07
2018-12-24T23:06:04.456Z,47.80
2018-12-24T23:08:32.924Z,42.03
2018-12-24T23:11:01.384Z,36.70
2018-12-24T23:13:29.858Z,35.07
2018-12-24T23:15:58.307Z,31.50
2018-12-24T23:18:26.775Z,28.07
2018-12-24T23:20:55.220Z,23.37
2018-12-24T23:23:23.700Z,22.40
2018-12-24T23:25:52.150Z,20.93
2018-12-24T23:28:20.616Z,19.67
2018-12-24T23:30:49.062Z,16.63
2018-12-24T23:33:17.527Z,17.73
2018-12-24T23:35:45.976Z,16.90
2018-12-24T23:38:14.420Z,15.17
2018-12-24T23:40:42.891Z,14.40
2018-12-24T23:43:11.324Z,13.47
2018-12-24T23:45:39.796Z,13.73
2018-12-24T23:48:08.240Z,14.17
2018-12-24T23:50:36.701Z,13.00
2018-12-24T23:53:05.143Z,12.53
2018-12-24T23:55:33.619Z,12.03
2018-12-24T23:58:02.693Z,11.40
